Time;durP1;ratioP1;P1;durP2;ratioP2;P2;SDS_P1;SDS_P2;PMS_P1;PMS_P2;Temp;Humidity;BMP_temperature;BMP_pressure;BME280_temperature;BME280_humidity;BME280_pressure;Samples;Min_cycle;Max_cycle;Signal;HPM_P1;HPM_P2
2023/03/25 00:02:28;;;;;;;1.75;0.80;;;8.80;99.90;;;;;;6061562;23;20639;-75
2023/03/25 00:04:55;;;;;;;2.65;0.70;;;8.80;99.90;;;;;;6062056;23;20192;-74
2023/03/25 00:07:23;;;;;;;1.77;0.70;;;8.80;99.90;;;;;;6060206;23;20214;-74
2023/03/25 00:09:50;;;;;;;3.38;1.13;;;8.80;99.90;;;;;;6104447;22;20301;-69
2023/03/25 00:12:17;;;;;;;1.30;0.70;;;8.90;99.90;;;;;;6149980;23;20183;-77
2023/03/25 00:14:52;;;;;;;0.82;0.63;;;9.20;99.90;;;;;;6144260;23;20214;-70
2023/03/25 00:17:20;;;;;;;1.67;0.77;;;9.20;99.90;;;;;;6140600;23;20271;-72
2023/03/25 00:19:50;;;;;;;1.98;0.80;;;8.90;99.90;;;;;;6147578;23;20646;-71
2023/03/25 00:22:18;;;;;;;1.35;0.70;;;8.90;99.90;;;;;;6139638;23;20313;-72
2023/03/25 00:24:45;;;;;;;3.63;0.80;;;8.90;99.90;;;;;;6143304;23;20193;-73
2023/03/25 00:27:13;;;;;;;1.52;0.90;;;8.90;99.90;;;;;;6140988;23;20273;-72
2023/03/25 00:29:41;;;;;;;1.35;0.80;;;8.90;99.90;;;;;;6136094;23;20277;-71
2023/03/25 00:32:07;;;;;;;0.82;0.70;;;8.90;99.90;;;;;;6143716;23;20193;-71
2023/03/25 00:34:40;;;;;;;1.88;1.45;;;8.90;99.90;;;;;;6144071;23;20186;-72
2023/03/25 00:37:09;;;;;;;1.90;1.35;;;8.90;99.90;;;;;;6146576;23;20252;-71
2023/03/25 00:39:36;;;;;;;3.95;2.67;;;8.90;99.90;;;;;;6147360;23;20627;-72
2023/03/25 00:42:04;;;;;;;2.17;1.70;;;8.90;99.90;;;;;;6142087;23;20304;-72
2023/03/25 00:44:31;;;;;;;1.65;1.13;;;8.90;99.90;;;;;;6138831;23;20290;-72
2023/03/25 00:46:58;;;;;;;2.40;0.77;;;8.90;99.90;;;;;;6146706;23;20582;-72
2023/03/25 00:49:27;;;;;;;1.25;0.60;;;8.90;99.90;;;;;;6149088;23;20191;-72
2023/03/25 00:51:54;;;;;;;1.63;0.60;;;8.90;99.90;;;;;;6142769;23;20219;-72
2023/03/25 00:54:23;;;;;;;2.17;0.70;;;8.90;99.90;;;;;;6147091;23;20214;-72
2023/03/25 00:56:52;;;;;;;2.60;0.80;;;8.90;99.90;;;;;;6144667;23;20216;-72
2023/03/25 00:59:19;;;;;;;3.08;0.70;;;8.90;99.90;;;;;;6149106;23;20190;-71
2023/03/25 01:01:47;;;;;;;0.60;0.50;;;8.90;99.90;;;;;;6126095;23;20289;-72
2023/03/25 01:04:15;;;;;;;1.67;0.80;;;8.90;99.90;;;;;;6141997;23;20251;-71
2023/03/25 01:06:42;;;;;;;1.75;0.70;;;8.90;99.90;;;;;;6144327;23;20277;-71
2023/03/25 01:09:14;;;;;;;1.10;0.80;;;9.10;99.90;;;;;;6150291;23;20332;-71
2023/03/25 01:11:44;;;;;;;1.27;0.82;;;8.90;99.90;;;;;;6128121;23;20251;-72
2023/03/25 01:14:13;;;;;;;1.35;0.70;;;8.90;99.90;;;;;;6148652;23;20220;-71
2023/03/25 01:16:41;;;;;;;0.85;0.60;;;8.90;99.90;;;;;;6141977;23;20185;-72
2023/03/25 01:19:08;;;;;;;1.80;0.95;;;8.90;99.90;;;;;;6135923;23;20356;-72
2023/03/25 01:21:35;;;;;;;1.13;0.60;;;8.90;99.90;;;;;;6147829;23;20282;-71
2023/03/25 01:24:03;;;;;;;1.02;0.73;;;8.90;99.90;;;;;;6146618;23;20602;-72
2023/03/25 01:26:31;;;;;;;1.40;1.00;;;8.80;99.90;;;;;;6145179;23;20295;-72
2023/03/25 01:29:00;;;;;;;2.30;0.95;;;8.80;99.90;;;;;;6147836;23;20224;-72
2023/03/25 01:31:29;;;;;;;2.47;1.02;;;8.80;99.90;;;;;;6127049;23;20277;-72
2023/03/25 01:33:56;;;;;;;1.00;0.70;;;8.80;99.90;;;;;;6148821;23;20193;-72
2023/03/25 01:36:24;;;;;;;4.88;1.00;;;8.80;99.90;;;;;;6143153;23;20189;-72
2023/03/25 01:38:52;;;;;;;2.83;1.20;;;8.70;99.90;;;;;;6149854;23;20209;-72
2023/03/25 01:41:19;;;;;;;1.95;0.80;;;8.70;99.90;;;;;;6139637;23;20224;-71
2023/03/25 01:46:44;;;;;;;1.88;0.60;;;8.70;99.90;;;;;;6126392;23;20541;-71
2023/03/25 01:49:16;;;;;;;1.95;0.98;;;8.70;99.90;;;;;;6083858;23;20584;-71
2023/03/25 01:51:45;;;;;;;1.67;1.15;;;8.60;99.90;;;;;;6094531;23;20194;-71
2023/03/25 01:54:16;;;;;;;3.70;1.13;;;8.60;99.90;;;;;;6073427;23;20258;-71
2023/03/25 01:56:46;;;;;;;1.63;0.80;;;8.70;99.90;;;;;;6090267;23;20741;-72
2023/03/25 01:59:17;;;;;;;1.25;0.85;;;8.70;99.90;;;;;;6096044;23;20187;-73
2023/03/25 02:01:46;;;;;;;2.95;0.80;;;8.70;99.90;;;;;;6088841;23;20658;-73
2023/03/25 02:04:14;;;;;;;2.70;0.80;;;8.70;99.90;;;;;;6092363;23;20285;-73
2023/03/25 02:06:44;;;;;;;1.73;0.80;;;8.70;99.90;;;;;;6076926;23;20197;-73
2023/03/25 02:09:14;;;;;;;1.65;0.85;;;8.70;99.90;;;;;;6071602;23;20490;-73
2023/03/25 02:11:42;;;;;;;2.50;1.13;;;8.70;99.90;;;;;;6094075;23;20194;-73
2023/03/25 02:14:11;;;;;;;2.25;0.70;;;8.70;99.90;;;;;;6097579;23;20182;-73
2023/03/25 02:16:49;;;;;;;2.08;0.95;;;8.70;99.90;;;;;;6095587;23;20606;-73
2023/03/25 02:19:55;;;;;;;1.75;0.93;;;8.70;99.90;;;;;;6080002;23;20226;-73
2023/03/25 02:23:00;;;;;;;3.35;1.17;;;8.70;99.90;;;;;;6102515;23;20265;-71
2023/03/25 02:25:48;;;;;;;3.88;1.30;;;8.70;99.90;;;;;;6080165;23;20223;-71
2023/03/25 02:28:28;;;;;;;3.53;1.20;;;8.70;99.90;;;;;;6096974;23;20222;-71
2023/03/25 02:31:17;;;;;;;3.03;0.95;;;8.70;99.90;;;;;;6105518;23;20320;-71
2023/03/25 02:34:28;;;;;;;1.58;1.33;;;8.70;99.90;;;;;;6114494;23;20216;-71
2023/03/25 02:37:21;;;;;;;1.38;1.10;;;8.70;99.90;;;;;;6110866;23;20296;-71
2023/03/25 02:39:53;;;;;;;3.33;1.40;;;8.70;99.90;;;;;;6097579;23;20194;-69
2023/03/25 02:42:25;;;;;;;1.88;0.88;;;8.60;99.90;;;;;;6092586;23;20224;-70
2023/03/25 02:44:59;;;;;;;1.73;0.80;;;8.20;99.90;;;;;;6098110;23;20213;-70
2023/03/25 02:47:31;;;;;;;1.60;0.70;;;7.90;99.90;;;;;;6097379;23;20696;-70
2023/03/25 02:50:03;;;;;;;1.90;0.60;;;7.60;99.90;;;;;;6078107;23;20249;-70
2023/03/25 02:52:36;;;;;;;2.25;0.60;;;7.30;99.90;;;;;;6096373;23;20208;-70
2023/03/25 02:55:09;;;;;;;1.73;0.70;;;7.10;99.90;;;;;;6086956;23;20268;-70
2023/03/25 02:57:40;;;;;;;0.95;0.63;;;6.80;99.90;;;;;;6094915;23;20214;-70
2023/03/25 03:00:14;;;;;;;1.77;0.70;;;6.70;99.90;;;;;;6084973;23;20192;-70
2023/03/25 03:02:44;;;;;;;0.68;0.55;;;6.60;99.90;;;;;;6086484;23;20188;-70
2023/03/25 03:05:25;;;;;;;1.08;0.70;;;6.50;99.90;;;;;;6069071;23;20214;-71
2023/03/25 03:08:13;;;;;;;0.70;0.50;;;6.50;99.90;;;;;;6097782;23;20240;-70
2023/03/25 03:10:50;;;;;;;0.95;0.60;;;6.50;99.90;;;;;;6072236;23;20193;-71
2023/03/25 03:13:27;;;;;;;0.60;0.50;;;6.40;99.90;;;;;;6094339;23;20278;-71
2023/03/25 03:16:05;;;;;;;1.33;0.60;;;6.40;99.90;;;;;;6071536;23;20253;-71
2023/03/25 03:18:44;;;;;;;1.27;0.65;;;6.40;99.90;;;;;;6070071;23;20217;-71
2023/03/25 03:21:16;;;;;;;1.45;0.60;;;6.00;99.90;;;;;;6076356;23;20261;-71
2023/03/25 03:23:53;;;;;;;0.75;0.40;;;6.30;99.90;;;;;;6091404;23;20617;-71
2023/03/25 03:26:27;;;;;;;0.75;0.70;;;6.30;99.90;;;;;;6092594;23;20215;-71
2023/03/25 03:29:00;;;;;;;0.60;0.60;;;6.30;99.90;;;;;;6089498;23;20195;-71
2023/03/25 03:31:36;;;;;;;1.88;0.70;;;6.30;99.90;;;;;;6082820;23;20198;-71
2023/03/25 03:34:09;;;;;;;0.60;0.55;;;6.30;99.90;;;;;;6088723;23;20737;-71
2023/03/25 03:36:42;;;;;;;0.90;0.60;;;6.30;99.90;;;;;;6080186;23;20553;-71
2023/03/25 03:39:15;;;;;;;2.17;0.77;;;6.30;99.90;;;;;;6090981;23;20628;-71
2023/03/25 03:41:49;;;;;;;1.25;0.70;;;6.30;99.90;;;;;;6095486;23;20568;-71
2023/03/25 03:44:21;;;;;;;0.60;0.60;;;6.30;99.90;;;;;;6081729;23;20192;-71
2023/03/25 03:46:53;;;;;;;2.33;0.93;;;6.40;99.90;;;;;;6089332;23;20755;-71
2023/03/25 03:49:25;;;;;;;0.80;0.68;;;6.40;99.90;;;;;;6087951;23;20201;-71
2023/03/25 03:51:57;;;;;;;1.17;0.77;;;6.40;99.90;;;;;;6088372;23;20596;-71
2023/03/25 03:54:27;;;;;;;1.08;0.82;;;6.50;99.90;;;;;;6090130;23;20262;-71
2023/03/25 03:57:00;;;;;;;0.95;0.60;;;6.60;99.90;;;;;;6087890;23;20295;-71
2023/03/25 03:59:37;;;;;;;2.05;0.70;;;6.60;99.90;;;;;;6091289;23;20188;-71
2023/03/25 04:02:11;;;;;;;1.10;0.68;;;6.60;99.90;;;;;;6089254;23;20238;-71
2023/03/25 04:04:38;;;;;;;1.90;0.80;;;6.70;99.90;;;;;;6062347;23;20190;-71
2023/03/25 04:07:13;;;;;;;3.05;0.95;;;6.70;99.90;;;;;;6082334;23;20225;-71
2023/03/25 04:09:53;;;;;;;2.92;0.82;;;6.80;99.90;;;;;;6086113;23;20329;-71
2023/03/25 04:12:25;;;;;;;1.77;0.70;;;6.80;99.90;;;;;;6085929;23;20192;-71
2023/03/25 04:14:53;;;;;;;0.95;0.65;;;6.90;99.90;;;;;;6088455;23;20245;-71
2023/03/25 04:17:20;;;;;;;1.30;0.70;;;6.90;99.90;;;;;;6089049;23;20308;-71
2023/03/25 04:19:47;;;;;;;1.58;0.60;;;6.90;99.90;;;;;;6078474;23;20592;-71
2023/03/25 04:22:17;;;;;;;1.20;0.85;;;7.00;99.90;;;;;;6078052;23;20937;-71
2023/03/25 04:24:48;;;;;;;1.30;0.73;;;7.00;99.90;;;;;;6074492;23;20214;-71
2023/03/25 04:27:16;;;;;;;1.15;0.60;;;7.00;99.90;;;;;;6089212;23;20228;-71
2023/03/25 04:29:46;;;;;;;1.90;0.90;;;7.10;99.90;;;;;;6081232;23;20242;-71
2023/03/25 04:32:14;;;;;;;1.40;0.60;;;7.10;99.90;;;;;;6090115;23;20272;-71
2023/03/25 04:34:41;;;;;;;1.23;0.85;;;7.10;99.90;;;;;;6115084;23;20611;-71
2023/03/25 04:37:08;;;;;;;1.30;0.68;;;7.10;99.90;;;;;;6091891;23;20284;-71
2023/03/25 04:39:35;;;;;;;2.10;0.70;;;7.20;99.90;;;;;;6092444;23;20216;-71
2023/03/25 04:42:02;;;;;;;1.55;0.75;;;7.10;99.90;;;;;;6085169;23;20300;-71
2023/03/25 04:44:32;;;;;;;1.00;0.68;;;7.10;99.90;;;;;;6101771;23;20205;-71
2023/03/25 04:47:02;;;;;;;2.38;0.70;;;7.10;99.90;;;;;;6084923;23;20240;-71
2023/03/25 04:49:30;;;;;;;1.38;0.70;;;7.10;99.90;;;;;;6101280;23;20287;-71
2023/03/25 04:51:57;;;;;;;1.08;0.60;;;7.10;99.90;;;;;;6095229;23;20192;-71
2023/03/25 04:54:25;;;;;;;0.75;0.60;;;7.00;99.90;;;;;;6115401;23;20199;-71
2023/03/25 04:56:52;;;;;;;1.63;0.70;;;7.00;99.90;;;;;;6081013;23;20232;-71
2023/03/25 04:59:22;;;;;;;1.48;0.75;;;7.00;99.90;;;;;;6089051;23;20646;-71
2023/03/25 05:01:49;;;;;;;1.20;0.68;;;6.90;99.90;;;;;;6073418;23;20212;-71
2023/03/25 05:04:19;;;;;;;1.58;0.70;;;7.00;99.90;;;;;;6103045;23;20234;-72
2023/03/25 05:06:49;;;;;;;1.30;0.80;;;6.90;99.90;;;;;;6097089;23;20220;-71
2023/03/25 05:09:18;;;;;;;1.15;0.70;;;7.00;99.90;;;;;;6101301;23;20188;-72
2023/03/25 05:11:46;;;;;;;2.13;0.80;;;7.00;99.90;;;;;;6075805;23;20188;-71
2023/03/25 05:14:15;;;;;;;2.22;0.88;;;7.00;99.90;;;;;;6109149;23;20192;-71
2023/03/25 05:16:42;;;;;;;2.28;0.95;;;7.00;99.90;;;;;;6098263;23;20292;-71
2023/03/25 05:19:10;;;;;;;2.47;0.90;;;7.10;99.90;;;;;;6088064;23;20719;-71
2023/03/25 05:21:39;;;;;;;2.40;1.00;;;7.10;99.90;;;;;;6088421;23;20223;-71
2023/03/25 05:24:09;;;;;;;2.55;1.00;;;7.20;99.90;;;;;;6081374;23;20271;-71
2023/03/25 05:26:36;;;;;;;2.15;1.08;;;7.30;99.90;;;;;;6094786;23;20274;-72
2023/03/25 05:29:05;;;;;;;2.40;0.95;;;7.30;99.90;;;;;;6086754;23;20287;-72
2023/03/25 05:31:32;;;;;;;1.85;0.80;;;7.30;99.90;;;;;;6068477;23;20209;-72
2023/03/25 05:34:00;;;;;;;2.90;0.93;;;7.60;99.90;;;;;;6101770;23;20191;-72
2023/03/25 05:36:28;;;;;;;1.10;0.80;;;7.30;99.90;;;;;;6093291;23;20192;-71
2023/03/25 05:38:57;;;;;;;2.65;0.98;;;7.30;99.90;;;;;;6091265;23;20193;-71
2023/03/25 05:41:31;;;;;;;2.20;1.10;;;7.30;99.90;;;;;;6090743;23;20271;-71
2023/03/25 05:43:59;;;;;;;1.75;0.90;;;7.30;99.90;;;;;;6077767;23;20201;-72
2023/03/25 05:46:28;;;;;;;2.55;1.00;;;7.30;99.90;;;;;;6085024;23;20236;-72
2023/03/25 05:48:56;;;;;;;4.20;1.13;;;7.40;99.90;;;;;;6081834;23;20194;-72
2023/03/25 05:51:25;;;;;;;2.03;1.10;;;7.40;99.90;;;;;;6098138;23;20193;-72
2023/03/25 05:53:52;;;;;;;2.65;1.02;;;7.50;99.90;;;;;;6098902;23;20609;-72
2023/03/25 05:56:23;;;;;;;3.45;1.13;;;7.50;99.90;;;;;;6088319;23;20277;-72
2023/03/25 05:58:51;;;;;;;1.98;0.93;;;7.60;99.90;;;;;;6072751;23;20199;-72
2023/03/25 06:01:20;;;;;;;2.95;1.00;;;7.60;99.90;;;;;;6095842;23;20273;-72
2023/03/25 06:03:47;;;;;;;1.52;1.02;;;7.70;99.90;;;;;;6089562;23;20191;-72
2023/03/25 06:06:17;;;;;;;3.00;1.30;;;7.70;99.90;;;;;;6088257;23;20688;-72
2023/03/25 06:08:45;;;;;;;2.88;0.90;;;7.80;99.90;;;;;;6095143;23;20206;-73
2023/03/25 06:11:13;;;;;;;2.75;1.10;;;7.80;99.90;;;;;;6103848;23;20567;-72
2023/03/25 06:13:48;;;;;;;4.28;1.48;;;7.80;99.90;;;;;;6091353;23;20202;-72
2023/03/25 06:16:18;;;;;;;3.30;0.80;;;7.80;99.90;;;;;;6095491;23;20191;-72
2023/03/25 06:18:49;;;;;;;1.83;1.17;;;7.90;99.90;;;;;;6085441;23;20278;-72
2023/03/25 06:21:17;;;;;;;2.20;1.10;;;7.90;99.90;;;;;;6089152;23;20195;-72
2023/03/25 06:23:45;;;;;;;3.90;1.17;;;8.00;99.90;;;;;;6082461;23;20274;-72
2023/03/25 06:26:12;;;;;;;4.00;1.23;;;8.00;99.90;;;;;;6087458;23;20712;-72
2023/03/25 06:28:38;;;;;;;2.33;0.90;;;8.10;99.90;;;;;;6079888;23;20284;-72
2023/03/25 06:31:12;;;;;;;2.70;1.48;;;8.10;99.90;;;;;;6073614;23;20584;-72
2023/03/25 06:33:40;;;;;;;3.85;1.17;;;8.10;99.90;;;;;;6090088;23;20192;-72
2023/03/25 06:36:10;;;;;;;4.63;1.17;;;8.20;99.90;;;;;;6090427;23;20192;-72
2023/03/25 06:38:38;;;;;;;4.20;1.40;;;8.20;99.90;;;;;;6080722;23;20187;-72
2023/03/25 06:41:06;;;;;;;5.70;1.40;;;8.20;99.90;;;;;;6079072;23;20203;-72
2023/03/25 06:43:33;;;;;;;5.32;1.15;;;8.20;99.90;;;;;;6068219;23;20214;-72
2023/03/25 06:46:00;;;;;;;2.97;1.00;;;8.30;99.90;;;;;;6078573;23;20283;-72
2023/03/25 06:48:28;;;;;;;3.22;1.25;;;8.40;99.90;;;;;;6077150;23;20264;-73
2023/03/25 06:50:56;;;;;;;3.38;1.40;;;8.60;99.90;;;;;;6082514;23;20191;-73
2023/03/25 06:53:23;;;;;;;2.88;1.27;;;8.80;99.90;;;;;;6083265;23;20659;-72
2023/03/25 06:55:50;;;;;;;3.83;1.67;;;8.90;99.90;;;;;;6075497;23;20212;-72
2023/03/25 06:58:17;;;;;;;1.95;0.90;;;9.00;99.90;;;;;;6072441;23;20200;-72
2023/03/25 07:00:45;;;;;;;3.15;1.05;;;9.00;99.90;;;;;;6074367;23;20192;-72
2023/03/25 07:03:12;;;;;;;3.13;1.00;;;9.00;99.90;;;;;;6080299;23;20184;-72
2023/03/25 07:05:42;;;;;;;3.92;1.20;;;9.10;99.90;;;;;;6081111;23;23190;-72
2023/03/25 07:08:09;;;;;;;3.65;1.17;;;9.20;99.90;;;;;;6077426;23;20215;-72
2023/03/25 07:10:36;;;;;;;2.30;1.10;;;9.30;99.90;;;;;;6071135;23;20188;-70
2023/03/25 07:13:03;;;;;;;1.65;1.02;;;9.40;99.90;;;;;;6068901;23;20180;-72
2023/03/25 07:15:30;;;;;;;4.82;1.27;;;9.50;99.90;;;;;;6080116;23;20192;-71
2023/03/25 07:17:57;;;;;;;2.28;0.90;;;9.60;99.90;;;;;;6073950;23;20268;-70
2023/03/25 07:20:25;;;;;;;1.10;0.90;;;9.80;99.90;;;;;;6077658;23;20275;-70
2023/03/25 07:22:55;;;;;;;5.97;1.65;;;9.80;99.90;;;;;;6072960;23;20690;-70
2023/03/25 07:25:22;;;;;;;2.70;1.00;;;9.80;99.90;;;;;;6076792;23;20207;-70
2023/03/25 07:27:49;;;;;;;2.67;0.90;;;9.70;99.90;;;;;;6070314;23;20216;-71
2023/03/25 07:30:16;;;;;;;1.83;1.10;;;9.70;99.90;;;;;;6075780;23;20431;-70
2023/03/25 07:32:44;;;;;;;1.58;0.82;;;9.60;99.90;;;;;;6074368;23;20263;-70
2023/03/25 07:35:11;;;;;;;1.92;0.70;;;9.60;99.90;;;;;;6080811;23;20187;-70
2023/03/25 07:37:38;;;;;;;1.73;0.90;;;9.60;99.90;;;;;;6083023;23;20200;-69
2023/03/25 07:40:08;;;;;;;1.80;1.10;;;9.60;99.90;;;;;;6090023;23;20192;-70
2023/03/25 07:42:37;;;;;;;2.80;0.90;;;9.70;99.90;;;;;;6086890;23;20191;-71
2023/03/25 07:45:05;;;;;;;2.00;0.88;;;9.80;99.90;;;;;;6086798;23;20195;-71
2023/03/25 07:47:32;;;;;;;2.97;1.00;;;9.80;99.90;;;;;;6094102;23;20639;-71
2023/03/25 07:49:59;;;;;;;3.40;1.20;;;9.80;99.90;;;;;;6110482;23;20242;-71
2023/03/25 07:52:26;;;;;;;4.65;0.95;;;9.80;99.90;;;;;;6101680;23;20188;-70
2023/03/25 07:54:53;;;;;;;2.03;0.77;;;9.70;99.90;;;;;;6081105;23;20259;-71
2023/03/25 07:57:22;;;;;;;2.75;0.90;;;9.70;99.90;;;;;;6093928;23;20284;-71
2023/03/25 07:59:49;;;;;;;2.35;1.23;;;9.80;99.90;;;;;;6091756;23;20712;-70
2023/03/25 08:02:16;;;;;;;1.80;0.95;;;9.90;99.90;;;;;;6096778;23;20311;-72
2023/03/25 08:04:45;;;;;;;2.60;0.90;;;9.90;99.90;;;;;;6090279;23;20192;-71
2023/03/25 08:07:12;;;;;;;1.50;0.93;;;9.90;99.90;;;;;;6094140;23;20222;-70
2023/03/25 08:09:39;;;;;;;2.80;1.10;;;10.00;99.90;;;;;;6091694;23;20188;-71
2023/03/25 08:12:08;;;;;;;1.85;0.82;;;10.00;99.90;;;;;;6085506;23;20674;-70
2023/03/25 08:14:36;;;;;;;2.00;0.80;;;10.10;99.90;;;;;;6080617;23;20618;-70
2023/03/25 08:17:05;;;;;;;1.75;1.10;;;10.10;99.90;;;;;;6103939;23;20252;-70
2023/03/25 08:19:32;;;;;;;1.40;0.90;;;10.20;99.90;;;;;;6093397;23;20195;-70
2023/03/25 08:21:59;;;;;;;3.60;0.90;;;10.20;99.90;;;;;;6102097;23;20567;-70
2023/03/25 08:24:28;;;;;;;1.88;1.20;;;10.20;99.90;;;;;;6092038;23;20664;-70
2023/03/25 08:26:56;;;;;;;1.23;0.80;;;10.20;99.90;;;;;;6093740;23;20254;-71
2023/03/25 08:29:23;;;;;;;2.65;0.90;;;10.20;99.90;;;;;;6114232;23;20187;-70
2023/03/25 08:31:51;;;;;;;2.10;1.00;;;10.40;99.90;;;;;;6101140;23;20198;-70
2023/03/25 08:34:20;;;;;;;3.22;0.90;;;10.40;99.90;;;;;;6086040;23;20190;-70
2023/03/25 08:36:47;;;;;;;2.25;0.80;;;10.40;99.90;;;;;;6075533;23;20216;-75
2023/03/25 08:39:16;;;;;;;2.28;1.10;;;10.60;99.90;;;;;;6088986;23;20192;-70
2023/03/25 08:41:43;;;;;;;2.10;0.80;;;10.80;99.90;;;;;;6098343;23;20196;-69
2023/03/25 08:44:11;;;;;;;2.25;0.93;;;11.00;99.90;;;;;;6077611;23;20199;-71
2023/03/25 08:46:38;;;;;;;2.75;1.00;;;11.00;99.90;;;;;;6064661;23;20553;-69
2023/03/25 08:49:06;;;;;;;2.20;1.00;;;10.90;99.90;;;;;;6078722;23;20267;-70
2023/03/25 08:51:34;;;;;;;2.10;1.20;;;10.80;99.90;;;;;;6088823;23;20249;-71
2023/03/25 08:54:01;;;;;;;1.80;0.80;;;10.60;99.90;;;;;;6087222;23;20192;-77
2023/03/25 08:56:28;;;;;;;1.60;0.70;;;10.30;99.90;;;;;;6089923;23;20212;-71
2023/03/25 08:58:55;;;;;;;1.45;0.63;;;10.00;99.90;;;;;;6074304;23;20552;-91
2023/03/25 09:01:23;;;;;;;1.38;0.60;;;9.70;99.90;;;;;;6077801;23;20599;-91
2023/03/25 09:03:51;;;;;;;0.70;0.65;;;9.30;99.90;;;;;;6085586;23;20604;-90
2023/03/25 09:06:19;;;;;;;0.85;0.70;;;9.10;99.90;;;;;;6087290;23;20912;-90
2023/03/25 09:08:46;;;;;;;1.25;0.70;;;9.00;99.90;;;;;;6071322;23;20218;-68
2023/03/25 09:11:14;;;;;;;0.60;0.60;;;8.90;99.90;;;;;;6083904;23;20274;-69
2023/03/25 09:13:41;;;;;;;0.50;0.43;;;8.70;99.90;;;;;;6088700;23;20245;-75
2023/03/25 09:16:09;;;;;;;1.23;0.57;;;8.60;99.90;;;;;;6088939;23;20230;-70
2023/03/25 09:18:37;;;;;;;1.60;0.52;;;8.50;99.90;;;;;;6088735;23;20635;-76
2023/03/25 09:21:04;;;;;;;0.75;0.60;;;8.50;99.90;;;;;;6063742;23;20194;-69
2023/03/25 09:23:33;;;;;;;0.80;0.50;;;8.70;99.90;;;;;;6078476;23;20620;-70
2023/03/25 09:26:02;;;;;;;1.25;0.70;;;8.70;99.90;;;;;;6084749;23;20298;-69
2023/03/25 09:28:29;;;;;;;0.57;0.50;;;8.70;99.90;;;;;;6090793;23;20221;-70
2023/03/25 09:30:57;;;;;;;1.30;0.70;;;8.80;99.90;;;;;;6083495;23;20199;-70
2023/03/25 09:33:26;;;;;;;0.68;0.60;;;8.90;99.90;;;;;;6075969;23;20185;-70
2023/03/25 09:35:53;;;;;;;0.80;0.63;;;9.00;99.90;;;;;;6088321;23;20549;-71
2023/03/25 09:38:21;;;;;;;0.93;0.50;;;9.20;99.90;;;;;;6078167;23;20269;-70
2023/03/25 09:40:49;;;;;;;0.70;0.63;;;9.40;99.90;;;;;;6089825;23;20252;-70
2023/03/25 09:43:47;;;;;;;0.77;0.55;;;9.60;99.90;;;;;;6088148;23;20199;-70
2023/03/25 09:46:15;;;;;;;1.17;0.55;;;10.00;99.90;;;;;;6087390;23;20867;-70
2023/03/25 09:48:46;;;;;;;0.70;0.60;;;10.30;99.90;;;;;;6086662;23;20261;-70
2023/03/25 09:51:15;;;;;;;0.80;0.60;;;10.50;99.90;;;;;;6100408;23;20222;-70
2023/03/25 09:53:47;;;;;;;1.20;0.70;;;10.40;99.90;;;;;;6090494;23;20655;-70
2023/03/25 09:56:20;;;;;;;1.15;0.50;;;10.40;99.90;;;;;;6091490;23;20205;-70
2023/03/25 09:58:49;;;;;;;1.60;0.73;;;10.30;99.90;;;;;;6100941;23;20841;-70
2023/03/25 10:01:25;;;;;;;1.65;0.60;;;10.30;99.90;;;;;;6111698;23;20252;-71
2023/03/25 10:04:00;;;;;;;0.70;0.60;;;10.30;99.90;;;;;;6086722;23;20228;-70
2023/03/25 10:06:29;;;;;;;1.13;0.65;;;10.30;99.90;;;;;;6099844;23;20208;-85
2023/03/25 10:09:09;;;;;;;0.85;0.60;;;10.30;99.90;;;;;;6072832;23;20307;-70
2023/03/25 10:11:46;;;;;;;1.05;0.60;;;10.50;99.90;;;;;;6077789;23;20184;-70
2023/03/25 10:14:20;;;;;;;1.10;0.70;;;10.70;99.90;;;;;;6100946;23;20184;-70
2023/03/25 10:16:58;;;;;;;0.73;0.55;;;10.80;99.90;;;;;;6109726;23;20207;-70
2023/03/25 10:19:37;;;;;;;1.45;0.70;;;10.90;99.90;;;;;;6088924;23;20653;-69
2023/03/25 10:22:08;;;;;;;0.70;0.60;;;10.90;99.90;;;;;;6102435;23;20636;-69
2023/03/25 10:24:42;;;;;;;1.20;0.52;;;10.80;99.90;;;;;;6080045;23;20186;-69
2023/03/25 10:27:17;;;;;;;1.02;0.75;;;10.70;99.90;;;;;;6085633;23;20204;-69
2023/03/25 10:29:49;;;;;;;0.90;0.70;;;10.70;99.90;;;;;;6080021;23;20192;-69
2023/03/25 10:32:18;;;;;;;1.52;0.80;;;10.70;99.90;;;;;;6079237;23;20181;-70
2023/03/25 10:34:50;;;;;;;1.45;0.60;;;10.70;99.90;;;;;;6074558;23;20516;-70
2023/03/25 10:37:27;;;;;;;2.58;0.70;;;10.70;99.90;;;;;;6075823;23;20212;-70
2023/03/25 10:39:59;;;;;;;0.80;0.60;;;10.70;99.90;;;;;;6064620;23;20189;-70
2023/03/25 10:42:33;;;;;;;1.25;0.70;;;10.60;99.90;;;;;;6103777;23;20278;-70
2023/03/25 10:45:00;;;;;;;1.27;0.70;;;10.60;99.90;;;;;;6065334;23;20274;-69
2023/03/25 10:47:32;;;;;;;1.55;0.80;;;10.60;99.90;;;;;;6084476;23;22037;-70
2023/03/25 10:49:59;;;;;;;1.35;0.60;;;10.50;99.90;;;;;;6103013;23;20209;-70
2023/03/25 10:52:26;;;;;;;2.22;0.70;;;10.40;99.90;;;;;;6082938;23;20311;-71
2023/03/25 10:54:55;;;;;;;0.90;0.60;;;10.30;99.90;;;;;;6090627;23;20632;-71
2023/03/25 10:57:26;;;;;;;1.15;0.80;;;10.30;99.90;;;;;;6082838;23;20270;-70
2023/03/25 11:00:00;;;;;;;1.10;0.90;;;10.40;99.90;;;;;;6094910;23;20234;-70
2023/03/25 11:02:30;;;;;;;1.33;0.85;;;10.60;99.90;;;;;;6112095;23;20254;-70
2023/03/25 11:04:59;;;;;;;1.35;0.80;;;10.70;99.90;;;;;;6089874;23;20187;-70
2023/03/25 11:07:32;;;;;;;1.98;0.73;;;10.80;99.90;;;;;;6084296;23;20180;-70
2023/03/25 11:10:16;;;;;;;1.15;0.65;;;11.00;99.90;;;;;;6073260;23;20608;-70
2023/03/25 11:12:45;;;;;;;1.42;0.70;;;11.10;99.90;;;;;;6095080;23;20207;-71
2023/03/25 11:15:17;;;;;;;1.63;0.73;;;11.40;99.90;;;;;;6106241;23;20246;-70
2023/03/25 11:17:46;;;;;;;1.17;0.77;;;11.70;99.90;;;;;;6087586;23;20189;-68
2023/03/25 11:20:25;;;;;;;1.60;0.77;;;12.40;99.90;;;;;;6110901;23;20436;-69
2023/03/25 11:22:54;;;;;;;0.60;0.60;;;13.20;99.90;;;;;;6083812;23;20444;-68
2023/03/25 11:25:25;;;;;;;2.93;0.80;;;13.40;99.90;;;;;;6079510;23;20821;-69
2023/03/25 11:27:55;;;;;;;1.10;0.60;;;13.10;99.90;;;;;;6083079;23;20955;-69
2023/03/25 11:30:25;;;;;;;1.00;0.60;;;12.70;99.90;;;;;;6103678;23;20443;-69
2023/03/25 11:33:02;;;;;;;0.70;0.60;;;12.40;99.90;;;;;;6083845;23;20440;-70
2023/03/25 11:35:33;;;;;;;0.90;0.60;;;12.50;99.90;;;;;;6089184;23;20474;-70
2023/03/25 11:38:08;;;;;;;2.40;0.77;;;12.90;99.90;;;;;;6092787;23;20439;-69
2023/03/25 11:40:35;;;;;;;1.43;0.80;;;13.20;99.90;;;;;;6102929;23;20959;-69
2023/03/25 11:43:03;;;;;;;1.50;0.70;;;13.20;99.90;;;;;;6084749;23;20457;-69
2023/03/25 11:45:37;;;;;;;1.33;0.60;;;13.40;99.90;;;;;;6099350;23;20981;-69
2023/03/25 11:48:12;;;;;;;1.30;0.80;;;13.50;99.90;;;;;;6083381;23;20565;-69
2023/03/25 11:50:44;;;;;;;1.30;0.80;;;13.60;99.90;;;;;;6093011;23;20531;-70
2023/03/25 11:53:16;;;;;;;2.73;1.07;;;13.70;99.90;;;;;;6094193;23;20947;-72
2023/03/25 11:55:46;;;;;;;1.37;0.90;;;13.60;99.90;;;;;;6088246;23;20739;-70
2023/03/25 11:58:16;;;;;;;3.80;0.80;;;13.60;99.90;;;;;;6095993;23;20445;-69
2023/03/25 12:00:49;;;;;;;1.60;0.70;;;13.30;99.90;;;;;;6093958;23;20937;-70
2023/03/25 12:03:21;;;;;;;3.23;0.93;;;13.10;99.90;;;;;;6090127;23;20939;-71
2023/03/25 12:05:59;;;;;;;2.40;0.77;;;13.20;99.90;;;;;;6088103;23;20835;-71
2023/03/25 12:08:30;;;;;;;1.90;1.00;;;13.20;99.90;;;;;;6085440;23;20500;-69
2023/03/25 12:11:05;;;;;;;1.53;0.70;;;12.70;99.90;;;;;;6081285;23;20458;-70
2023/03/25 12:13:44;;;;;;;1.37;0.70;;;12.20;99.90;;;;;;6081747;23;20446;-73
2023/03/25 12:16:23;;;;;;;2.67;0.70;;;12.50;99.90;;;;;;6084596;23;20531;-70
2023/03/25 12:19:11;;;;;;;1.80;0.83;;;13.10;99.90;;;;;;6076223;23;20941;-69
2023/03/25 12:21:53;;;;;;;4.83;0.80;;;13.40;99.90;;;;;;6080584;23;20435;-70
2023/03/25 12:24:33;;;;;;;1.63;0.80;;;13.70;99.90;;;;;;6078707;23;20451;-70
2023/03/25 12:27:15;;;;;;;1.83;0.73;;;14.30;99.90;;;;;;6085921;23;20519;-70
2023/03/25 12:29:51;;;;;;;2.07;0.80;;;14.00;99.90;;;;;;6108204;23;20980;-71
2023/03/25 12:32:32;;;;;;;2.27;0.80;;;13.90;99.90;;;;;;6101032;23;20519;-70
2023/03/25 12:35:14;;;;;;;1.20;0.80;;;13.70;99.90;;;;;;6106914;23;21048;-70
2023/03/25 12:38:00;;;;;;;2.65;0.80;;;13.20;99.90;;;;;;6095202;23;20418;-70
2023/03/25 12:40:45;;;;;;;1.50;0.90;;;12.90;99.90;;;;;;6066812;23;20196;-69
2023/03/25 12:43:17;;;;;;;1.63;0.70;;;12.60;99.90;;;;;;6070641;23;20489;-70
2023/03/25 12:45:56;;;;;;;2.22;0.60;;;12.10;99.90;;;;;;6098822;23;20462;-69
2023/03/25 12:48:40;;;;;;;1.23;0.60;;;11.40;99.90;;;;;;6061570;23;20295;-69
2023/03/25 12:51:17;;;;;;;1.77;0.70;;;10.80;99.90;;;;;;6076145;23;20728;-71
2023/03/25 12:53:56;;;;;;;1.35;0.80;;;10.50;99.90;;;;;;6073093;23;20198;-71
2023/03/25 12:56:41;;;;;;;1.40;0.60;;;10.80;99.90;;;;;;6072523;23;20211;-70
2023/03/25 12:59:25;;;;;;;3.00;0.70;;;11.10;99.90;;;;;;6085991;23;20202;-71
2023/03/25 13:02:04;;;;;;;1.70;0.80;;;11.30;99.90;;;;;;6084306;23;20676;-70
2023/03/25 13:04:43;;;;;;;1.10;0.70;;;11.60;99.90;;;;;;6065106;23;20215;-69
2023/03/25 13:07:15;;;;;;;0.90;0.70;;;12.00;99.90;;;;;;6081179;23;20180;-70
2023/03/25 13:09:53;;;;;;;1.30;0.80;;;12.20;99.90;;;;;;6099917;23;20761;-70
2023/03/25 13:12:28;;;;;;;1.93;0.60;;;12.30;99.90;;;;;;6103600;23;20661;-70
2023/03/25 13:15:01;;;;;;;0.97;0.70;;;12.50;99.90;;;;;;6098768;23;20461;-70
2023/03/25 13:17:34;;;;;;;1.87;0.90;;;13.00;99.90;;;;;;6088976;23;20443;-70